createdAt,value
2022-09-13T00:01:57.941Z,97580
2022-09-13T00:13:58.062Z,97580
2022-09-13T00:25:57.834Z,97550
2022-09-13T00:37:58.208Z,97560
2022-09-13T00:49:58.032Z,97550
2022-09-13T01:01:58.154Z,97510
2022-09-13T01:13:57.932Z,97520
2022-09-13T01:25:58.297Z,97550
2022-09-13T01:37:58.228Z,97540
2022-09-13T01:49:58.185Z,97540
2022-09-13T02:01:58.471Z,97530
2022-09-13T02:13:57.880Z,97550
2022-09-13T02:25:57.876Z,97530
2022-09-13T02:37:57.878Z,97520
2022-09-13T02:49:57.896Z,97520
2022-09-13T03:01:58.349Z,97510
2022-09-13T03:13:57.884Z,97500
2022-09-13T03:25:57.858Z,97490
2022-09-13T03:37:57.876Z,97490
2022-09-13T03:49:57.891Z,97470
2022-09-13T04:01:57.939Z,97470
2022-09-13T04:13:57.866Z,97460
2022-09-13T04:25:57.866Z,97450
2022-09-13T04:37:57.868Z,97480
2022-09-13T04:49:57.843Z,97480
2022-09-13T05:01:57.859Z,97480
2022-09-13T05:13:57.869Z,97510
2022-09-13T05:25:57.877Z,97510
2022-09-13T05:37:57.860Z,97520
2022-09-13T05:50:09.752Z,97520
2022-09-13T06:01:57.999Z,97510
2022-09-13T06:13:57.869Z,97530
2022-09-13T06:25:59.315Z,97520
2022-09-13T06:37:57.857Z,97520
2022-09-13T06:49:57.877Z,97490
2022-09-13T07:01:57.930Z,97490
2022-09-13T07:13:57.842Z,97480
2022-09-13T07:25:57.866Z,97490
2022-09-13T07:37:57.837Z,97490
2022-09-13T07:49:57.869Z,97490
2022-09-13T08:01:57.959Z,97490
2022-09-13T08:13:57.867Z,97480
2022-09-13T08:25:57.879Z,97490
2022-09-13T08:37:57.848Z,97480
2022-09-13T08:49:57.885Z,97470
2022-09-13T09:01:57.876Z,97490
2022-09-13T09:13:57.906Z,97490
2022-09-13T09:25:57.873Z,97490
2022-09-13T09:37:57.830Z,97490
2022-09-13T09:49:57.904Z,97490
2022-09-13T10:01:57.955Z,97490
2022-09-13T10:13:57.904Z,97500
2022-09-13T10:25:57.866Z,97500
2022-09-13T10:37:57.867Z,97510
2022-09-13T10:49:58.137Z,97500
2022-09-13T11:01:57.827Z,97470
2022-09-13T11:13:57.877Z,97450
2022-09-13T11:25:57.880Z,97440
2022-09-13T11:37:57.885Z,97420
2022-09-13T11:49:57.892Z,97420
2022-09-13T12:01:57.990Z,97430
2022-09-13T12:13:57.885Z,97420
2022-09-13T12:25:58.758Z,97410
2022-09-13T12:37:57.894Z,97400
2022-09-13T12:50:01.441Z,97390
2022-09-13T13:01:57.974Z,97390
2022-09-13T13:13:57.878Z,97390
2022-09-13T13:25:57.889Z,97380
2022-09-13T13:37:58.411Z,97370
2022-09-13T13:49:57.898Z,97380
2022-09-13T14:01:57.867Z,97390
2022-09-13T14:13:57.908Z,97350
2022-09-13T14:25:57.863Z,97350
2022-09-13T14:37:57.962Z,97350
2022-09-13T14:49:57.935Z,97360
2022-09-13T15:02:02.641Z,97350
2022-09-13T15:13:58.275Z,97340
2022-09-13T15:25:58.359Z,97350
2022-09-13T15:37:58.053Z,97350
2022-09-13T15:49:57.912Z,97340
2022-09-13T16:01:58.518Z,97340
2022-09-13T16:13:58.234Z,97340
2022-09-13T16:25:58.377Z,97340
2022-09-13T16:37:58.365Z,97360
2022-09-13T16:49:58.075Z,97360
2022-09-13T17:01:58.254Z,97350
2022-09-13T17:13:58.458Z,97340
2022-09-13T17:25:58.541Z,97360
2022-09-13T17:37:58.181Z,97350
2022-09-13T17:49:58.400Z,97360
2022-09-13T18:01:57.997Z,97350
2022-09-13T18:13:57.937Z,97350
2022-09-13T18:26:02.124Z,97360
2022-09-13T18:37:57.838Z,97360
2022-09-13T18:49:57.889Z,97370
2022-09-13T19:01:57.983Z,97360
2022-09-13T19:13:57.881Z,97360
2022-09-13T19:25:57.890Z,97370
2022-09-13T19:37:57.863Z,97360
2022-09-13T19:49:57.893Z,97360
2022-09-13T20:01:58.049Z,97340
2022-09-13T20:13:57.867Z,97340
2022-09-13T20:25:57.876Z,97320
2022-09-13T20:37:57.875Z,97330
2022-09-13T20:49:57.897Z,97330
2022-09-13T21:01:57.878Z,97290
2022-09-13T21:13:57.866Z,97280
2022-09-13T21:25:57.890Z,97270
2022-09-13T21:37:57.864Z,97250
2022-09-13T21:49:57.891Z,97260
2022-09-13T22:01:57.939Z,97270
2022-09-13T22:13:57.864Z,97250
2022-09-13T22:25:57.881Z,97220
2022-09-13T22:37:58.174Z,97220
2022-09-13T22:49:57.872Z,97210
2022-09-13T23:01:57.853Z,97230
2022-09-13T23:13:57.834Z,97240
2022-09-13T23:25:57.929Z,97240
2022-09-13T23:37:57.878Z,97230
2022-09-13T23:49:57.893Z,97230
